Time;durP1;ratioP1;P1;durP2;ratioP2;P2;SDS_P1;SDS_P2;PMS_P1;PMS_P2;Temp;Humidity;BMP_temperature;BMP_pressure;BME280_temperature;BME280_humidity;BME280_pressure;Samples;Min_cycle;Max_cycle;Signal;HPM_P1;HPM_P2
2021/07/25 00:00:40;;;;;;;5.68;4.18;;;;;;;25.34;55.38;98162.63;5032455;28;20387;-51
2021/07/25 00:03:07;;;;;;;9.38;6.22;;;;;;;25.17;56.01;98159.84;5032403;28;20030;-51
2021/07/25 00:05:33;;;;;;;7.10;6.45;;;;;;;25.25;56.10;98154.56;5047704;28;20021;-52
2021/07/25 00:07:59;;;;;;;11.90;5.13;;;;;;;25.28;56.29;98161.97;5032191;28;20525;-51
2021/07/25 00:10:25;;;;;;;13.23;8.18;;;;;;;25.24;56.26;98166.38;5032309;28;20013;-51
2021/07/25 00:12:51;;;;;;;14.50;8.20;;;;;;;25.23;56.07;98164.00;5032250;28;20033;-51
2021/07/25 00:15:16;;;;;;;6.72;4.70;;;;;;;25.11;56.25;98160.00;5032194;28;20029;-51
2021/07/25 00:17:43;;;;;;;12.85;4.30;;;;;;;24.69;56.87;98162.13;5031676;28;20135;-51
2021/07/25 00:20:09;;;;;;;10.68;9.55;;;;;;;24.36;58.34;98155.38;5032413;28;20537;-51
2021/07/25 00:22:35;;;;;;;206.40;183.18;;;;;;;24.27;58.88;98158.00;5032173;28;20030;-51
2021/07/25 00:25:08;;;;;;;29.52;26.52;;;;;;;24.19;58.55;98156.03;5032065;28;20402;-51
2021/07/25 00:27:41;;;;;;;6.38;5.22;;;;;;;23.86;58.74;98156.19;5032063;28;20117;-51
2021/07/25 00:30:11;;;;;;;15.82;14.13;;;;;;;23.87;59.79;98163.94;5031978;28;20021;-51
2021/07/25 00:32:38;;;;;;;12.57;6.43;;;;;;;24.12;58.87;98164.47;5029823;28;20026;-51
2021/07/25 00:35:04;;;;;;;19.63;17.85;;;;;;;24.30;58.32;98160.84;5031926;28;20018;-51
2021/07/25 00:37:29;;;;;;;11.38;8.38;;;;;;;24.28;57.86;98159.56;5032197;28;20041;-50
2021/07/25 00:39:55;;;;;;;10.90;8.52;;;;;;;24.26;58.06;98159.88;5031915;28;20032;-51
2021/07/25 00:42:21;;;;;;;11.38;7.18;;;;;;;24.26;58.16;98157.19;5047276;28;20021;-51
2021/07/25 00:44:47;;;;;;;14.57;10.20;;;;;;;24.17;58.24;98150.97;5031821;28;20022;-51
2021/07/25 00:47:12;;;;;;;9.23;5.35;;;;;;;24.12;57.65;98156.44;5031718;28;20080;-51
2021/07/25 00:49:39;;;;;;;6.80;5.45;;;;;;;24.16;57.85;98153.94;5031822;28;20545;-51
2021/07/25 00:52:08;;;;;;;61.88;56.88;;;;;;;24.19;58.13;98143.41;5047013;28;20046;-51
2021/07/25 00:54:38;;;;;;;4.63;3.97;;;;;;;24.26;57.72;98151.81;5032038;28;20024;-51
2021/07/25 00:57:04;;;;;;;18.38;12.35;;;;;;;24.24;56.78;98145.97;5031737;28;20029;-51
2021/07/25 00:59:29;;;;;;;10.07;4.63;;;;;;;24.35;56.98;98149.22;5030382;28;20563;-51
2021/07/25 01:01:56;;;;;;;6.82;4.75;;;;;;;24.23;57.66;98139.03;5046940;28;20025;-51
2021/07/25 01:04:54;;;;;;;7.00;4.55;;;;;;;23.82;58.13;98142.59;5031648;28;20018;-51
2021/07/25 01:07:49;;;;;;;5.82;4.50;;;;;;;23.59;58.91;98136.34;5030232;28;20041;-51
2021/07/25 01:10:35;;;;;;;69.85;63.92;;;;;;;23.57;59.11;98127.03;5031605;28;20488;-51
2021/07/25 01:13:12;;;;;;;11.43;6.25;;;;;;;23.69;59.26;98136.16;5029758;28;20132;-51
2021/07/25 01:15:41;;;;;;;8.82;4.97;;;;;;;23.85;59.09;98138.53;5031651;28;20826;-51
2021/07/25 01:18:06;;;;;;;10.38;7.50;;;;;;;24.13;58.52;98136.59;5030862;28;20115;-51
2021/07/25 01:20:32;;;;;;;12.90;6.13;;;;;;;24.39;57.88;98134.09;5031447;28;20038;-51
2021/07/25 01:22:59;;;;;;;22.77;20.73;;;;;;;24.59;57.26;98127.50;5046737;28;20040;-51
2021/07/25 01:25:27;;;;;;;26.35;23.90;;;;;;;24.61;56.88;98136.03;5030171;28;20087;-51
2021/07/25 01:27:58;;;;;;;16.73;12.50;;;;;;;24.66;56.97;98137.78;5031346;28;20022;-51
2021/07/25 01:30:31;;;;;;;49.90;44.97;;;;;;;24.66;56.79;98135.09;5031399;28;20036;-51
2021/07/25 01:33:02;;;;;;;10.10;5.25;;;;;;;24.57;56.48;98134.25;5031372;28;20391;-51
2021/07/25 01:35:28;;;;;;;8.15;4.22;;;;;;;24.48;56.98;98131.47;5031389;28;20025;-50
2021/07/25 01:37:54;;;;;;;10.55;5.30;;;;;;;24.45;56.96;98130.22;5031384;28;20052;-51
2021/07/25 01:40:24;;;;;;;11.60;6.93;;;;;;;24.45;57.17;98135.56;5029975;28;20036;-50
2021/07/25 01:42:54;;;;;;;28.15;25.38;;;;;;;24.53;56.53;98131.41;5031791;28;20029;-51
2021/07/25 01:45:20;;;;;;;11.13;5.88;;;;;;;24.58;56.54;98125.09;5035027;28;20033;-51
2021/07/25 01:47:46;;;;;;;9.60;5.10;;;;;;;24.42;56.38;98120.06;5034890;28;20109;-51
2021/07/25 01:50:13;;;;;;;12.38;7.90;;;;;;;24.28;57.47;98112.09;5034933;28;20021;-51
2021/07/25 01:52:39;;;;;;;15.50;13.95;;;;;;;24.41;56.88;98115.00;5034904;28;20022;-51
2021/07/25 01:55:05;;;;;;;9.88;7.25;;;;;;;24.47;56.71;98113.81;5033530;28;20422;-51
2021/07/25 01:57:31;;;;;;;9.07;5.45;;;;;;;24.60;56.62;98120.22;5034804;28;20029;-51
2021/07/25 01:59:57;;;;;;;12.35;7.68;;;;;;;24.72;56.45;98115.09;5049998;28;20084;-51
2021/07/25 02:02:23;;;;;;;85.75;79.15;;;;;;;24.86;56.09;98113.09;5034657;28;20517;-51
2021/07/25 02:04:49;;;;;;;8.20;7.40;;;;;;;24.96;55.79;98116.63;5034634;28;20029;-51
2021/07/25 02:07:15;;;;;;;5.75;5.05;;;;;;;25.02;55.23;98118.09;5034560;28;20021;-51
2021/07/25 02:09:40;;;;;;;18.50;16.63;;;;;;;24.88;55.51;98116.28;5049895;28;20511;-51
2021/07/25 02:12:08;;;;;;;8.93;6.07;;;;;;;24.79;55.57;98114.63;5034478;28;20021;-51
2021/07/25 02:14:36;;;;;;;24.08;21.50;;;;;;;24.82;55.78;98101.41;5034491;28;20151;-51
2021/07/25 02:17:04;;;;;;;11.52;4.80;;;;;;;24.91;55.64;98110.31;5049521;28;20516;-51
2021/07/25 02:19:33;;;;;;;9.48;7.70;;;;;;;25.04;55.44;98103.25;5034441;28;20033;-51
2021/07/25 02:21:59;;;;;;;5.18;3.90;;;;;;;25.04;54.99;98107.81;5034328;28;20164;-51
2021/07/25 02:24:25;;;;;;;15.95;13.30;;;;;;;24.87;55.15;98103.16;5034353;28;20108;-51
2021/07/25 02:26:51;;;;;;;13.38;6.53;;;;;;;24.84;55.33;98101.88;5049572;28;20033;-51
2021/07/25 02:29:16;;;;;;;8.18;4.35;;;;;;;24.88;54.97;98102.06;5034211;28;20101;-51
2021/07/25 02:31:42;;;;;;;12.43;7.57;;;;;;;24.82;55.09;98093.34;5049684;28;20486;-52
2021/07/25 02:34:09;;;;;;;84.70;77.63;;;;;;;24.85;55.15;98094.63;5034175;28;20021;-51
2021/07/25 02:36:35;;;;;;;12.63;10.93;;;;;;;24.80;55.03;98092.88;5034080;28;20837;-51
2021/07/25 02:39:00;;;;;;;8.73;6.13;;;;;;;24.77;55.15;98082.78;5032772;28;20026;-51
2021/07/25 02:41:26;;;;;;;12.00;6.70;;;;;;;24.74;55.06;98083.38;5049270;28;20021;-51
2021/07/25 02:43:52;;;;;;;12.75;6.40;;;;;;;24.71;55.18;98081.31;5033968;28;20157;-51
2021/07/25 02:46:18;;;;;;;9.45;7.10;;;;;;;24.68;55.50;98095.34;5033881;28;20053;-51
2021/07/25 02:48:44;;;;;;;8.27;6.97;;;;;;;24.74;55.13;98091.41;5033783;28;20028;-51
2021/07/25 02:51:10;;;;;;;9.23;6.88;;;;;;;24.74;55.14;98087.94;5049143;28;20487;-51
2021/07/25 02:53:35;;;;;;;10.00;6.93;;;;;;;24.75;55.55;98092.22;5032416;28;20025;-51
2021/07/25 02:56:02;;;;;;;10.32;4.22;;;;;;;24.77;55.22;98093.50;5031492;28;20036;-51
2021/07/25 02:58:27;;;;;;;8.60;4.80;;;;;;;24.66;55.32;98089.47;5033746;28;20064;-51
2021/07/25 03:00:53;;;;;;;8.63;7.80;;;;;;;24.60;55.45;98085.34;5048859;28;20422;-51
2021/07/25 03:03:18;;;;;;;8.15;4.25;;;;;;;24.69;55.53;98086.19;5032283;28;20021;-51
2021/07/25 03:05:44;;;;;;;26.42;18.45;;;;;;;24.75;55.28;98084.97;5033523;28;20048;-51
2021/07/25 03:08:10;;;;;;;8.38;5.10;;;;;;;24.74;55.25;98094.09;5033421;28;20022;-51
2021/07/25 03:10:35;;;;;;;7.72;6.07;;;;;;;24.56;55.60;98082.47;5033432;28;20030;-50
2021/07/25 03:13:01;;;;;;;11.23;7.10;;;;;;;24.30;56.02;98084.97;5048719;28;20017;-51
2021/07/25 03:15:27;;;;;;;14.27;11.77;;;;;;;24.29;56.61;98088.75;5033371;28;20036;-51
2021/07/25 03:17:53;;;;;;;23.48;20.95;;;;;;;24.34;56.67;98096.66;5032908;28;20089;-51
2021/07/25 03:20:19;;;;;;;8.68;4.55;;;;;;;24.40;56.46;98095.44;5048615;28;20585;-51
2021/07/25 03:22:45;;;;;;;9.30;8.15;;;;;;;24.35;55.99;98086.72;5033170;28;20025;-51
2021/07/25 03:25:11;;;;;;;40.95;36.92;;;;;;;24.28;56.36;98077.22;5033169;28;20068;-51
2021/07/25 03:27:38;;;;;;;16.80;13.68;;;;;;;24.26;56.83;98082.09;5033065;28;20049;-50
2021/07/25 03:30:04;;;;;;;13.40;11.60;;;;;;;24.28;56.34;98081.81;5033067;28;20049;-51
2021/07/25 03:32:30;;;;;;;10.80;7.15;;;;;;;24.24;56.46;98080.81;5033012;28;20049;-51
2021/07/25 03:34:56;;;;;;;9.25;6.70;;;;;;;24.13;56.64;98078.38;5031722;28;20061;-51
2021/07/25 03:37:22;;;;;;;12.52;10.25;;;;;;;24.23;56.91;98073.91;5031580;28;20129;-51
2021/07/25 03:39:52;;;;;;;37.50;34.22;;;;;;;24.30;56.56;98075.03;5031493;28;20025;-51
2021/07/25 03:42:18;;;;;;;9.70;5.80;;;;;;;24.22;56.44;98077.66;5032837;28;20115;-52
2021/07/25 03:44:44;;;;;;;7.03;4.93;;;;;;;23.92;56.58;98074.59;5048120;28;20584;-51
2021/07/25 03:47:11;;;;;;;10.45;4.50;;;;;;;23.62;57.69;98070.66;5047987;28;20029;-51
2021/07/25 03:49:39;;;;;;;24.52;17.90;;;;;;;23.46;58.52;98067.53;5032602;28;20064;-51
2021/07/25 03:52:06;;;;;;;10.05;8.00;;;;;;;23.57;58.03;98070.78;5031321;28;20036;-51
2021/07/25 03:54:34;;;;;;;23.35;21.15;;;;;;;23.46;58.43;98067.53;5032609;28;20063;-51
2021/07/25 03:57:00;;;;;;;8.60;6.80;;;;;;;23.33;58.67;98075.28;5032518;28;20029;-51
2021/07/25 03:59:26;;;;;;;15.82;13.50;;;;;;;23.32;58.95;98076.38;5031494;28;20563;-52
2021/07/25 04:01:52;;;;;;;9.30;7.28;;;;;;;23.32;58.92;98081.72;5032471;28;20113;-52
2021/07/25 04:04:20;;;;;;;7.78;5.10;;;;;;;23.47;58.81;98071.78;5047789;28;20496;-51
2021/07/25 04:06:46;;;;;;;18.95;16.95;;;;;;;23.58;58.71;98080.41;5047606;28;20038;-51
2021/07/25 04:09:12;;;;;;;13.60;10.27;;;;;;;23.67;58.25;98074.03;5032274;28;20099;-51
2021/07/25 04:11:37;;;;;;;6.57;4.75;;;;;;;23.97;58.17;98071.03;5032328;28;20026;-51
2021/07/25 04:14:03;;;;;;;8.00;5.78;;;;;;;24.19;57.12;98067.56;5032359;28;20056;-51
2021/07/25 04:16:29;;;;;;;19.58;8.27;;;;;;;24.28;56.94;98073.75;5047105;28;20030;-52
2021/07/25 04:18:55;;;;;;;8.55;5.07;;;;;;;24.26;56.33;98075.94;5047482;28;20095;-51
2021/07/25 04:21:20;;;;;;;10.52;8.35;;;;;;;24.11;56.97;98077.13;5047459;28;20021;-51
2021/07/25 04:23:46;;;;;;;7.60;5.30;;;;;;;23.99;56.95;98077.66;5032147;28;20036;-51
2021/07/25 04:26:12;;;;;;;21.85;19.60;;;;;;;23.93;57.34;98078.88;5032128;28;20025;-51
2021/07/25 04:28:38;;;;;;;10.48;5.18;;;;;;;23.92;57.63;98083.44;5032048;28;20022;-51
2021/07/25 04:31:05;;;;;;;9.25;6.22;;;;;;;23.89;57.55;98080.56;5032039;28;20024;-51
2021/07/25 04:33:33;;;;;;;16.92;14.38;;;;;;;23.87;57.26;98077.41;5047306;28;20090;-51
2021/07/25 04:35:59;;;;;;;7.45;6.72;;;;;;;23.77;57.90;98089.13;5032067;28;20100;-51
2021/07/25 04:38:25;;;;;;;21.90;19.70;;;;;;;23.78;57.74;98084.56;5032063;28;20033;-52
2021/07/25 04:41:01;;;;;;;9.75;4.40;;;;;;;23.80;57.89;98085.06;5031938;28;20026;-51
2021/07/25 04:43:33;;;;;;;8.40;4.85;;;;;;;23.69;57.82;98087.94;5031956;28;20029;-51
2021/07/25 04:46:11;;;;;;;7.63;5.60;;;;;;;23.56;58.12;98090.63;5031879;28;20029;-51
2021/07/25 04:48:46;;;;;;;15.52;11.30;;;;;;;23.46;58.43;98091.63;5031782;28;20025;-51
2021/07/25 04:51:14;;;;;;;14.57;10.63;;;;;;;23.59;58.85;98082.78;5031812;28;20029;-51
2021/07/25 04:53:42;;;;;;;9.43;8.02;;;;;;;23.66;58.22;98083.19;5031729;28;20044;-51
2021/07/25 04:56:12;;;;;;;8.10;5.55;;;;;;;23.40;58.66;98088.28;5031728;28;20105;-51
2021/07/25 04:58:45;;;;;;;12.50;7.40;;;;;;;23.44;59.29;98089.25;5032073;28;20041;-51
2021/07/25 05:01:16;;;;;;;15.65;14.23;;;;;;;23.68;59.84;98096.25;5047023;28;20042;-51
2021/07/25 05:03:42;;;;;;;14.23;12.80;;;;;;;23.81;61.34;98100.03;5031734;28;20049;-51
2021/07/25 05:06:17;;;;;;;75.57;69.55;;;;;;;23.69;62.20;98111.25;5046955;28;20106;-51
2021/07/25 05:08:43;;;;;;;13.52;11.30;;;;;;;23.53;61.54;98113.44;5046920;28;20030;-51
2021/07/25 05:11:16;;;;;;;8.15;6.70;;;;;;;23.47;61.81;98117.31;5031563;28;20121;-51
2021/07/25 05:13:49;;;;;;;16.77;8.45;;;;;;;23.42;60.93;98114.75;5030282;28;20507;-51
2021/07/25 05:16:26;;;;;;;12.43;6.90;;;;;;;22.99;61.11;98115.78;5031655;28;20032;-51
2021/07/25 05:19:05;;;;;;;6.93;4.72;;;;;;;22.42;62.74;98118.63;5033832;28;20102;-51
2021/07/25 05:21:38;;;;;;;27.10;16.50;;;;;;;22.18;63.35;98117.91;5035503;28;20029;-51
2021/07/25 05:24:07;;;;;;;24.63;18.73;;;;;;;22.14;63.64;98110.47;5050816;28;20025;-51
2021/07/25 05:26:36;;;;;;;14.77;8.23;;;;;;;22.30;63.87;98110.28;5034100;28;20388;-51
2021/07/25 05:29:03;;;;;;;15.02;12.68;;;;;;;22.92;62.60;98118.88;5034000;28;20028;-51
2021/07/25 05:31:34;;;;;;;10.80;6.00;;;;;;;23.34;60.92;98113.53;5050566;28;20453;-52
2021/07/25 05:34:02;;;;;;;6.95;4.30;;;;;;;23.68;59.76;98109.66;5050598;28;20546;-51
2021/07/25 05:36:30;;;;;;;11.05;9.07;;;;;;;23.73;59.43;98110.34;5035267;28;20461;-51
2021/07/25 05:38:56;;;;;;;13.57;6.75;;;;;;;23.49;59.36;98105.22;5035211;28;20439;-51
2021/07/25 05:41:21;;;;;;;15.70;14.18;;;;;;;23.25;61.23;98112.66;5035124;28;20108;-51
2021/07/25 05:43:47;;;;;;;49.75;45.63;;;;;;;23.20;62.53;98118.94;5050446;28;20570;-51
2021/07/25 05:46:13;;;;;;;7.88;6.82;;;;;;;23.22;63.95;98127.44;5033747;28;20407;-51
2021/07/25 05:48:39;;;;;;;9.40;6.45;;;;;;;23.29;62.78;98130.50;5033605;28;20066;-52
2021/07/25 05:51:05;;;;;;;11.48;6.10;;;;;;;23.35;62.36;98123.19;5033608;28;20021;-51
2021/07/25 05:53:31;;;;;;;7.40;5.10;;;;;;;23.41;61.64;98115.84;5033892;28;20025;-51
2021/07/25 05:55:57;;;;;;;166.65;149.70;;;;;;;23.45;61.38;98119.50;5050126;28;20021;-51
2021/07/25 05:58:22;;;;;;;79.60;71.88;;;;;;;23.56;60.97;98099.44;5034807;28;20530;-51
2021/07/25 06:00:48;;;;;;;27.95;25.38;;;;;;;23.64;60.41;98101.44;5034764;28;20032;-51
2021/07/25 06:03:14;;;;;;;34.22;30.95;;;;;;;23.47;60.33;98111.97;5033414;28;20462;-51
2021/07/25 06:05:40;;;;;;;25.80;23.23;;;;;;;23.68;60.29;98115.00;5049977;28;20547;-52
2021/07/25 06:08:08;;;;;;;7.43;5.80;;;;;;;24.04;59.14;98104.31;5034583;28;20022;-51
2021/07/25 06:10:39;;;;;;;9.57;5.15;;;;;;;24.34;58.19;98104.72;5034529;28;20022;-51
2021/07/25 06:13:05;;;;;;;10.63;6.70;;;;;;;24.30;58.16;98111.78;5049977;28;20108;-51
2021/07/25 06:15:33;;;;;;;12.23;8.23;;;;;;;24.47;57.78;98106.56;5049795;28;20026;-51
2021/07/25 06:18:01;;;;;;;6.40;5.80;;;;;;;24.62;57.04;98105.41;5034256;28;20054;-51
2021/07/25 06:20:28;;;;;;;8.02;5.68;;;;;;;24.16;57.41;98114.53;5034377;28;20032;-51
2021/07/25 06:22:58;;;;;;;7.97;5.50;;;;;;;23.85;58.54;98107.19;5034405;28;20506;-51
2021/07/25 06:25:27;;;;;;;5.50;4.15;;;;;;;23.78;58.55;98112.13;5032982;28;20056;-51
2021/07/25 06:27:56;;;;;;;10.18;4.80;;;;;;;23.68;58.76;98110.47;5032913;28;20025;-51
2021/07/25 06:30:24;;;;;;;9.70;7.57;;;;;;;23.62;59.29;98122.34;5032892;28;20495;-51
2021/07/25 06:32:56;;;;;;;7.20;4.93;;;;;;;23.90;58.83;98125.84;5034211;28;20025;-51
2021/07/25 06:35:31;;;;;;;7.72;4.10;;;;;;;24.20;57.80;98123.53;5049402;28;20029;-51
2021/07/25 06:37:59;;;;;;;27.27;24.70;;;;;;;24.03;58.63;98118.84;5049456;28;20515;-51
2021/07/25 06:40:25;;;;;;;7.05;5.85;;;;;;;24.16;58.28;98125.25;5034044;28;20029;-51
2021/07/25 06:42:52;;;;;;;10.27;5.43;;;;;;;23.97;58.27;98119.25;5032686;28;20036;-51
2021/07/25 06:45:18;;;;;;;27.30;24.33;;;;;;;24.20;58.62;98120.06;5033953;28;20387;-51
2021/07/25 06:47:48;;;;;;;7.15;4.70;;;;;;;24.58;57.12;98122.44;5049135;28;20057;-51
2021/07/25 06:50:23;;;;;;;8.40;6.20;;;;;;;24.76;56.87;98124.09;5049131;28;20022;-51
2021/07/25 06:52:51;;;;;;;9.25;7.13;;;;;;;25.09;55.79;98126.47;5032841;28;20124;-51
2021/07/25 06:55:21;;;;;;;56.83;52.35;;;;;;;25.39;54.97;98129.47;5033724;28;20018;-51
2021/07/25 06:57:47;;;;;;;5.78;4.28;;;;;;;25.58;54.22;98134.59;5033776;28;20047;-51
2021/07/25 07:00:13;;;;;;;19.30;17.42;;;;;;;25.74;53.94;98132.25;5032349;28;20087;-51
2021/07/25 07:02:50;;;;;;;8.88;5.68;;;;;;;26.66;52.36;98126.72;5033919;28;20112;-51
2021/07/25 07:05:23;;;;;;;6.30;4.15;;;;;;;29.32;46.88;98126.63;5033543;28;20060;-51
2021/07/25 07:07:51;;;;;;;7.90;4.07;;;;;;;30.66;42.46;98126.63;5033576;28;20025;-51
2021/07/25 07:10:19;;;;;;;5.43;3.83;;;;;;;30.67;42.40;98122.81;5032184;28;20014;-51
2021/07/25 07:12:47;;;;;;;5.50;3.55;;;;;;;30.68;41.59;98129.78;5048743;28;20029;-51
2021/07/25 07:15:15;;;;;;;10.27;5.30;;;;;;;30.45;41.63;98124.16;5033366;28;20391;-51
2021/07/25 07:17:41;;;;;;;8.30;5.13;;;;;;;30.90;40.92;98127.66;5033069;28;20041;-51
2021/07/25 07:20:09;;;;;;;9.25;4.28;;;;;;;32.27;38.44;98124.16;5033363;28;20048;-51
2021/07/25 07:22:36;;;;;;;4.05;3.30;;;;;;;33.43;36.26;98125.81;5031973;28;20037;-51
2021/07/25 07:25:04;;;;;;;8.05;4.45;;;;;;;34.75;33.79;98123.19;5031883;28;20044;-51
2021/07/25 07:27:31;;;;;;;8.52;3.92;;;;;;;35.09;33.15;98125.81;5033073;28;20033;-52
2021/07/25 07:29:58;;;;;;;6.68;3.72;;;;;;;35.27;33.04;98130.66;5033093;28;20018;-51
2021/07/25 07:32:24;;;;;;;7.35;4.03;;;;;;;36.52;30.83;98125.03;5048247;28;20033;-51
2021/07/25 07:34:50;;;;;;;8.18;3.75;;;;;;;37.20;29.81;98122.38;5032986;28;20521;-52
2021/07/25 07:37:16;;;;;;;6.40;4.15;;;;;;;36.75;30.14;98122.75;5048237;28;20036;-51
2021/07/25 07:39:43;;;;;;;5.85;3.80;;;;;;;36.21;30.82;98123.78;5032964;28;20476;-52
2021/07/25 07:42:10;;;;;;;6.57;3.88;;;;;;;36.08;31.07;98126.84;5031146;28;20021;-52
2021/07/25 07:44:37;;;;;;;5.28;4.75;;;;;;;36.24;31.22;98123.81;5048103;28;20032;-51
2021/07/25 07:47:04;;;;;;;7.13;4.20;;;;;;;36.77;30.19;98122.38;5032759;28;20038;-52
2021/07/25 07:49:30;;;;;;;11.75;6.40;;;;;;;37.43;29.53;98121.19;5032621;28;20017;-52
2021/07/25 07:51:59;;;;;;;13.07;5.65;;;;;;;38.02;28.67;98123.38;5032701;28;20495;-51
2021/07/25 07:54:24;;;;;;;8.73;4.70;;;;;;;38.94;27.59;98119.34;5032611;28;20029;-51
2021/07/25 07:56:50;;;;;;;4.68;3.78;;;;;;;39.70;26.23;98126.88;5032536;28;20519;-52
2021/07/25 07:59:16;;;;;;;7.43;4.35;;;;;;;39.82;26.06;98118.09;5032538;28;20032;-52
2021/07/25 08:01:42;;;;;;;6.00;4.38;;;;;;;39.28;26.11;98131.59;5032510;28;20024;-52
2021/07/25 08:04:07;;;;;;;8.40;4.20;;;;;;;39.05;26.58;98127.50;5032435;28;20025;-51
2021/07/25 08:06:33;;;;;;;4.38;3.88;;;;;;;39.31;25.97;98122.56;5032431;28;20220;-52
2021/07/25 08:08:59;;;;;;;4.47;4.07;;;;;;;39.15;26.02;98123.88;5032370;28;20118;-52
2021/07/25 08:11:24;;;;;;;6.25;3.97;;;;;;;39.08;26.67;98123.97;5032342;28;20037;-52
2021/07/25 08:13:50;;;;;;;9.73;4.40;;;;;;;39.61;25.63;98121.13;5032328;28;20045;-52
2021/07/25 08:16:16;;;;;;;5.53;4.20;;;;;;;39.74;25.46;98116.63;5047533;28;20509;-52
2021/07/25 08:18:41;;;;;;;5.82;4.05;;;;;;;40.70;24.74;98108.31;5032067;28;20061;-52
2021/07/25 08:21:09;;;;;;;7.82;5.07;;;;;;;41.51;23.57;98104.59;5032392;28;20048;-52
2021/07/25 08:23:35;;;;;;;9.32;4.07;;;;;;;41.87;22.69;98099.19;5032178;28;20033;-53
2021/07/25 08:26:01;;;;;;;5.22;3.63;;;;;;;41.63;22.76;98100.47;5032091;28;20021;-53
2021/07/25 08:28:27;;;;;;;4.53;3.60;;;;;;;40.50;23.85;98097.25;5047267;28;20030;-52
2021/07/25 08:30:54;;;;;;;7.75;4.35;;;;;;;38.33;25.92;98106.00;5047337;28;20557;-51
2021/07/25 08:33:20;;;;;;;9.93;5.53;;;;;;;36.67;28.39;98099.31;5031951;28;20525;-51
2021/07/25 08:35:46;;;;;;;7.05;3.90;;;;;;;35.59;30.00;98103.56;5031953;28;20026;-52
2021/07/25 08:38:13;;;;;;;11.00;4.43;;;;;;;36.43;29.34;98100.81;5031889;28;20445;-52
2021/07/25 08:40:42;;;;;;;13.35;8.13;;;;;;;38.13;26.96;98096.72;5031941;28;20029;-52
2021/07/25 08:43:11;;;;;;;8.43;4.13;;;;;;;38.54;26.11;98099.66;5030539;28;20113;-52
2021/07/25 08:45:42;;;;;;;5.60;3.65;;;;;;;38.28;26.21;98094.72;5030516;28;20022;-52
2021/07/25 08:48:22;;;;;;;10.40;5.75;;;;;;;39.07;25.82;98096.91;5047016;28;20025;-52
2021/07/25 08:51:12;;;;;;;5.05;3.83;;;;;;;40.28;24.17;98103.00;5031954;28;20029;-52
2021/07/25 08:53:49;;;;;;;3.97;3.30;;;;;;;41.15;22.86;98096.22;5029557;28;20048;-52
2021/07/25 08:56:15;;;;;;;6.95;4.70;;;;;;;41.93;21.86;98096.72;5031754;28;20025;-51
2021/07/25 08:58:44;;;;;;;6.45;3.13;;;;;;;42.70;20.73;98095.41;5031678;28;20095;-52
2021/07/25 09:01:14;;;;;;;6.00;3.30;;;;;;;42.68;20.39;98095.06;5031665;28;20113;-52
2021/07/25 09:03:40;;;;;;;4.45;3.78;;;;;;;41.18;22.19;98085.16;5031713;28;20570;-51
2021/07/25 09:06:06;;;;;;;3.90;3.40;;;;;;;39.41;23.85;98093.44;5031656;28;20025;-52
2021/07/25 09:08:32;;;;;;;6.05;3.03;;;;;;;38.58;24.87;98096.91;5031582;28;20021;-52
2021/07/25 09:11:06;;;;;;;5.20;3.20;;;;;;;40.00;23.88;98090.44;5031538;28;20116;-52
2021/07/25 09:13:32;;;;;;;5.68;3.78;;;;;;;41.53;22.01;98093.94;5031656;28;20105;-52
2021/07/25 09:15:57;;;;;;;6.00;3.20;;;;;;;42.39;21.06;98094.16;5030280;28;20119;-52
2021/07/25 09:18:23;;;;;;;6.70;3.58;;;;;;;41.95;21.28;98088.03;5031312;28;20100;-52
2021/07/25 09:20:49;;;;;;;5.50;3.28;;;;;;;40.27;22.36;98097.94;5031567;28;20472;-52
2021/07/25 09:23:17;;;;;;;7.63;4.65;;;;;;;38.26;24.46;98102.56;5031499;28;20083;-52
2021/07/25 09:25:48;;;;;;;7.13;3.35;;;;;;;37.08;26.68;98109.84;5031553;28;20447;-52
2021/07/25 09:28:19;;;;;;;7.43;4.13;;;;;;;36.57;27.46;98108.25;5046754;28;20025;-52
2021/07/25 09:30:46;;;;;;;8.00;3.25;;;;;;;36.25;28.11;98114.44;5031531;28;20017;-52
2021/07/25 09:33:31;;;;;;;5.45;3.40;;;;;;;35.57;28.81;98106.66;5046662;28;20507;-52
2021/07/25 09:36:09;;;;;;;5.80;3.20;;;;;;;34.60;30.14;98110.56;5031438;28;20022;-49
2021/07/25 09:38:35;;;;;;;3.88;3.17;;;;;;;33.78;30.88;98122.03;5031500;28;20258;-49
2021/07/25 09:41:01;;;;;;;7.88;4.40;;;;;;;33.02;32.13;98122.03;5030010;28;20029;-49
2021/07/25 09:43:27;;;;;;;7.70;4.07;;;;;;;32.90;32.78;98124.94;5030006;28;20025;-51
2021/07/25 09:45:58;;;;;;;5.72;3.20;;;;;;;33.34;32.61;98122.56;5046518;28;20056;-51
2021/07/25 09:48:34;;;;;;;5.03;3.50;;;;;;;35.48;29.53;98114.44;5031247;28;20476;-52
2021/07/25 09:51:02;;;;;;;10.40;3.78;;;;;;;37.42;26.61;98105.94;5031305;28;20040;-52
2021/07/25 09:53:46;;;;;;;4.50;2.83;;;;;;;38.58;25.26;98104.31;5031267;28;20029;-51
2021/07/25 09:56:13;;;;;;;4.97;2.83;;;;;;;39.10;24.43;98102.38;5031235;28;20033;-52
2021/07/25 09:58:40;;;;;;;8.20;3.33;;;;;;;39.30;24.17;98107.28;5031173;28;20042;-51
2021/07/25 10:01:06;;;;;;;7.00;3.80;;;;;;;38.10;25.35;98108.50;5031183;28;20037;-52
2021/07/25 10:03:34;;;;;;;5.30;3.20;;;;;;;37.50;26.12;98105.53;5029877;28;20053;-52
2021/07/25 10:06:21;;;;;;;5.95;3.22;;;;;;;38.53;24.70;98105.53;5034667;28;20029;-52
2021/07/25 10:08:46;;;;;;;8.32;2.80;;;;;;;39.64;23.81;98112.03;5034674;28;20026;-51
2021/07/25 10:11:19;;;;;;;5.63;3.00;;;;;;;40.54;22.46;98100.72;5034570;28;20048;-52
2021/07/25 10:13:49;;;;;;;7.50;3.10;;;;;;;40.80;22.34;98101.91;5034634;28;20564;-52
2021/07/25 10:16:20;;;;;;;7.85;3.65;;;;;;;41.03;21.27;98087.38;5034504;28;20395;-52
2021/07/25 10:18:53;;;;;;;13.13;5.45;;;;;;;40.52;21.85;98097.59;5049666;28;20503;-51
2021/07/25 10:21:20;;;;;;;7.27;3.30;;;;;;;40.44;21.86;98096.16;5049825;28;20518;-52
2021/07/25 10:23:55;;;;;;;4.15;2.90;;;;;;;40.78;21.24;98096.03;5049646;28;20292;-52
2021/07/25 10:26:25;;;;;;;4.63;3.40;;;;;;;40.91;20.95;98090.72;5034649;28;20033;-51
2021/07/25 10:28:54;;;;;;;3.55;2.65;;;;;;;41.04;21.10;98091.66;5034260;28;20034;-51
2021/07/25 10:31:23;;;;;;;4.28;2.80;;;;;;;40.96;21.17;98095.75;5034547;28;20037;-52
2021/07/25 10:33:50;;;;;;;7.07;3.63;;;;;;;40.61;21.48;98094.31;5034216;28;20029;-51
2021/07/25 10:36:21;;;;;;;6.18;3.22;;;;;;;39.45;22.26;98097.75;5034142;28;20095;-52
2021/07/25 10:38:48;;;;;;;7.43;3.00;;;;;;;38.40;23.49;98098.94;5034109;28;20036;-51
2021/07/25 10:41:24;;;;;;;6.70;3.63;;;;;;;37.60;24.46;98098.50;5034001;28;20522;-51
2021/07/25 10:43:50;;;;;;;9.15;3.20;;;;;;;37.12;25.83;98096.22;5034076;28;20036;-52
2021/07/25 10:46:23;;;;;;;5.20;3.25;;;;;;;37.05;25.92;98096.97;5033943;28;20022;-51
2021/07/25 10:49:05;;;;;;;5.20;3.08;;;;;;;36.95;25.95;98092.28;5033933;28;20355;-52
2021/07/25 10:51:32;;;;;;;5.78;3.53;;;;;;;36.73;25.93;98092.28;5033903;28;20013;-51
2021/07/25 10:54:19;;;;;;;7.20;3.10;;;;;;;36.31;26.45;98088.28;5032464;28;20120;-52
2021/07/25 10:57:02;;;;;;;6.15;3.00;;;;;;;35.95;26.99;98088.16;5033800;28;20087;-52
2021/07/25 10:59:38;;;;;;;6.80;3.03;;;;;;;35.58;27.31;98088.34;5033849;28;20042;-49
2021/07/25 11:02:04;;;;;;;5.72;3.15;;;;;;;35.61;27.26;98091.09;5033614;28;20017;-49
2021/07/25 11:04:51;;;;;;;5.18;3.45;;;;;;;35.45;27.10;98092.56;5048866;28;20034;-49
2021/07/25 11:07:23;;;;;;;4.78;3.10;;;;;;;35.39;27.44;98084.72;5033540;28;20026;-49
2021/07/25 11:10:05;;;;;;;4.97;3.08;;;;;;;35.57;27.24;98082.09;5048762;28;20037;-50
2021/07/25 11:12:51;;;;;;;6.65;3.92;;;;;;;36.08;26.73;98094.06;5033523;28;20025;-50
2021/07/25 11:15:32;;;;;;;4.78;2.80;;;;;;;37.36;25.08;98081.69;5033000;28;20041;-51
2021/07/25 11:18:03;;;;;;;3.58;2.83;;;;;;;38.65;23.48;98085.09;5033123;28;20133;-52
2021/07/25 11:21:00;;;;;;;5.55;3.70;;;;;;;38.88;22.68;98079.03;5033344;28;20017;-51
2021/07/25 11:23:35;;;;;;;5.20;2.80;;;;;;;38.51;23.09;98085.94;5033331;28;20497;-52
2021/07/25 11:26:28;;;;;;;24.20;5.07;;;;;;;38.27;23.21;98082.16;5033252;28;20018;-51
2021/07/25 11:28:54;;;;;;;5.18;3.70;;;;;;;38.73;22.96;98083.84;5033036;28;20025;-52
2021/07/25 11:31:42;;;;;;;5.32;2.45;;;;;;;38.68;22.96;98084.28;5033092;28;20395;-52
2021/07/25 11:34:11;;;;;;;5.57;3.00;;;;;;;39.38;22.62;98081.28;5033126;28;20056;-52
2021/07/25 11:36:37;;;;;;;7.38;5.50;;;;;;;39.31;22.07;98081.38;5033029;28;20044;-53